createdAt,value
2023-03-23T15:58:33.224Z,1.40
2023-03-23T16:01:05.592Z,1.60
2023-03-23T16:03:39.934Z,0.93
2023-03-23T16:06:11.695Z,1.30
2023-03-23T16:08:41.052Z,1.03
2023-03-23T16:11:11.870Z,1.20
2023-03-23T16:13:40.574Z,0.90
2023-03-23T16:16:15.544Z,1.10
2023-03-23T16:18:43.713Z,1.30
2023-03-23T16:21:11.845Z,0.90
2023-03-23T16:23:40.845Z,0.90
2023-03-23T16:26:10.480Z,1.10
2023-03-23T16:28:38.507Z,1.07
2023-03-23T16:31:06.977Z,0.70
2023-03-23T16:33:35.017Z,1.10
2023-03-23T16:36:03.568Z,0.97
2023-03-23T16:38:31.834Z,0.90
2023-03-23T16:41:00.348Z,0.83
2023-03-23T16:43:30.034Z,0.87
2023-03-23T16:45:58.735Z,0.90
2023-03-23T16:48:26.916Z,1.03
2023-03-23T16:50:55.414Z,1.10
2023-03-23T16:53:24.809Z,1.00
2023-03-23T16:55:53.742Z,1.03
2023-03-23T16:58:26.141Z,0.90
2023-03-23T17:00:55.532Z,0.80
2023-03-23T17:03:24.095Z,0.80
2023-03-23T17:05:53.045Z,0.57
2023-03-23T17:08:22.169Z,0.80
2023-03-23T17:10:50.489Z,0.90
2023-03-23T17:13:18.530Z,0.70
2023-03-23T17:15:47.801Z,0.70
2023-03-23T17:18:17.609Z,0.67
2023-03-23T17:20:45.887Z,0.83
2023-03-23T17:23:13.903Z,0.60
2023-03-23T17:25:42.144Z,0.47
2023-03-23T17:28:10.549Z,0.80
2023-03-23T17:30:41.300Z,0.80
2023-03-23T17:33:09.439Z,0.90
2023-03-23T17:35:38.893Z,0.83
2023-03-23T17:38:06.945Z,0.87
2023-03-23T17:40:34.970Z,0.80
2023-03-23T17:43:02.930Z,1.00
2023-03-23T17:45:31.127Z,0.73
2023-03-23T17:47:59.303Z,0.80
2023-03-23T17:50:27.335Z,0.70
2023-03-23T17:52:57.919Z,1.13
2023-03-23T17:55:25.911Z,1.10
2023-03-23T17:57:53.904Z,0.80
2023-03-23T18:00:22.464Z,1.00
2023-03-23T18:02:50.614Z,0.83
2023-03-23T18:05:18.700Z,0.60
2023-03-23T18:07:46.714Z,0.70
2023-03-23T18:10:17.342Z,1.10
2023-03-23T18:12:45.360Z,1.00
2023-03-23T18:15:13.505Z,0.70
2023-03-23T18:17:42.370Z,0.90
2023-03-23T18:20:10.685Z,0.80
2023-03-23T18:22:38.685Z,0.90
2023-03-23T18:25:07.185Z,0.70
2023-03-23T18:27:36.669Z,1.37
2023-03-23T18:30:05.395Z,0.93
2023-03-23T18:32:36.031Z,0.80
2023-03-23T18:35:04.417Z,0.73
2023-03-23T18:37:32.446Z,0.80
2023-03-23T18:40:01.930Z,0.77
2023-03-23T18:42:30.513Z,0.80
2023-03-23T18:45:00.565Z,0.77
2023-03-23T18:47:28.730Z,0.70
2023-03-23T18:49:56.954Z,0.77
2023-03-23T18:52:26.637Z,1.00
2023-03-23T18:54:54.889Z,0.90
2023-03-23T18:57:23.628Z,0.80
2023-03-23T18:59:52.028Z,0.80
2023-03-23T19:02:22.017Z,0.80
2023-03-23T19:04:50.504Z,0.63
2023-03-23T19:07:19.812Z,1.10
2023-03-23T19:09:48.136Z,0.70
2023-03-23T19:12:16.533Z,0.73
2023-03-23T19:14:44.726Z,0.63
2023-03-23T19:17:12.853Z,0.43
2023-03-23T19:19:43.163Z,1.00
2023-03-23T19:22:11.955Z,0.67
2023-03-23T19:24:39.931Z,0.80
2023-03-23T19:27:08.213Z,0.77
2023-03-23T19:29:36.864Z,0.77
2023-03-23T19:32:05.044Z,1.10
2023-03-23T19:34:33.721Z,0.80
2023-03-23T19:37:06.014Z,0.90
2023-03-23T19:39:39.108Z,1.00
2023-03-23T19:42:07.958Z,0.77
2023-03-23T19:44:36.323Z,0.80
2023-03-23T19:47:04.825Z,1.00
2023-03-23T19:49:32.848Z,1.00
2023-03-23T19:52:08.905Z,0.70
2023-03-23T19:54:39.121Z,0.63
2023-03-23T19:57:08.309Z,0.87
2023-03-23T20:02:27.571Z,0.80
2023-03-23T20:04:56.886Z,0.90
2023-03-23T20:07:26.994Z,0.60
2023-03-23T20:09:55.029Z,0.80
2023-03-23T20:12:23.149Z,0.93
2023-03-23T20:14:51.208Z,0.80
2023-03-23T20:17:19.224Z,1.10
2023-03-23T20:19:47.287Z,1.00
2023-03-23T20:22:15.519Z,1.00
2023-03-23T20:24:47.137Z,0.80
2023-03-23T20:27:15.520Z,1.03
2023-03-23T20:29:43.816Z,1.03
2023-03-23T20:32:12.366Z,0.80
2023-03-23T20:34:40.448Z,1.00
2023-03-23T20:37:15.472Z,0.93
2023-03-23T20:39:46.663Z,0.83
2023-03-23T20:42:14.722Z,1.07
2023-03-23T20:44:42.944Z,0.97
2023-03-23T20:47:12.183Z,1.00
2023-03-23T20:49:40.806Z,1.20
2023-03-23T20:52:10.051Z,1.00
2023-03-23T20:54:38.195Z,1.07
2023-03-23T20:57:08.227Z,0.90
2023-03-23T20:59:37.969Z,0.90
2023-03-23T21:02:06.312Z,1.10
2023-03-23T21:04:34.386Z,1.00
2023-03-23T21:07:02.716Z,1.10
2023-03-23T21:09:30.845Z,1.30
2023-03-23T21:12:00.148Z,1.10
2023-03-23T21:14:29.559Z,0.93
2023-03-23T21:17:01.302Z,0.90
2023-03-23T21:19:30.324Z,1.00
2023-03-23T21:21:58.901Z,1.10
2023-03-23T21:24:28.879Z,1.10
2023-03-23T21:26:58.589Z,1.00
2023-03-23T21:29:27.514Z,1.27
2023-03-23T21:34:29.512Z,1.20
2023-03-23T21:36:57.546Z,1.20
2023-03-23T21:39:26.279Z,1.30
2023-03-23T21:41:54.344Z,1.50
2023-03-23T21:44:22.446Z,1.20
2023-03-23T21:46:52.172Z,1.20
2023-03-23T21:49:21.769Z,1.00
2023-03-23T21:51:50.122Z,1.20
2023-03-23T21:54:18.494Z,1.20
2023-03-23T21:56:46.598Z,1.33
2023-03-23T21:59:14.629Z,1.60
2023-03-23T22:01:43.213Z,1.30
2023-03-23T22:04:11.387Z,1.20
2023-03-23T22:06:42.383Z,1.07
2023-03-23T22:09:10.881Z,1.30
2023-03-23T22:11:40.593Z,1.20
2023-03-23T22:14:09.189Z,1.30
2023-03-23T22:16:37.356Z,1.23
2023-03-23T22:19:05.498Z,1.10
2023-03-23T22:21:33.573Z,1.00
2023-03-23T22:24:03.437Z,1.20
2023-03-23T22:26:32.287Z,0.90
2023-03-23T22:29:01.917Z,1.03
2023-03-23T22:31:32.697Z,1.10
2023-03-23T22:34:01.519Z,1.40
2023-03-23T22:36:31.209Z,1.20
2023-03-23T22:38:59.335Z,1.43
2023-03-23T22:41:30.727Z,1.63
2023-03-23T22:43:59.272Z,1.20
2023-03-23T22:46:27.736Z,1.40
2023-03-23T22:48:55.840Z,1.30
2023-03-23T22:51:24.583Z,1.50
2023-03-23T22:53:52.958Z,1.17
2023-03-23T22:56:21.448Z,1.00
2023-03-23T22:58:51.041Z,1.40
2023-03-23T23:01:22.696Z,1.37
2023-03-23T23:03:51.169Z,1.10
2023-03-23T23:06:20.723Z,1.10
2023-03-23T23:08:50.036Z,1.30
2023-03-23T23:11:19.706Z,1.40
2023-03-23T23:13:48.217Z,1.50
2023-03-23T23:16:18.839Z,1.30
2023-03-23T23:18:48.458Z,1.10
2023-03-23T23:21:19.139Z,1.30
2023-03-23T23:23:47.715Z,1.37
2023-03-23T23:26:16.948Z,1.30
2023-03-23T23:28:46.126Z,1.57
2023-03-23T23:31:22.676Z,1.17
2023-03-23T23:33:51.590Z,1.47
2023-03-23T23:36:21.186Z,1.17
2023-03-23T23:38:49.974Z,1.00
2023-03-23T23:41:19.377Z,1.50
2023-03-23T23:43:47.507Z,1.30
2023-03-23T23:46:16.168Z,1.13
2023-03-23T23:48:47.464Z,1.17
2023-03-23T23:51:16.541Z,1.20
2023-03-23T23:53:46.181Z,1.20
2023-03-23T23:56:15.188Z,1.17
2023-03-23T23:58:43.349Z,1.23
